Time;durP1;ratioP1;P1;durP2;ratioP2;P2;SDS_P1;SDS_P2;PMS_P1;PMS_P2;Temp;Humidity;BMP_temperature;BMP_pressure;BME280_temperature;BME280_humidity;BME280_pressure;Samples;Min_cycle;Max_cycle;Signal;HPM_P1;HPM_P2
2023/07/04 00:02:12;;;;;;;5.90;2.50;;;;;;;;;;5051212;28;20514;-82
2023/07/04 00:04:42;;;;;;;3.43;2.03;;;;;;;;;;5048229;28;20473;-82
2023/07/04 00:07:08;;;;;;;4.13;2.30;;;;;;;;;;5056047;28;20475;-82
2023/07/04 00:09:36;;;;;;;3.60;2.37;;;;;;;;;;5052093;28;20480;-82
2023/07/04 00:12:03;;;;;;;4.17;2.10;;;;;;;;;;5054023;28;20539;-82
2023/07/04 00:14:29;;;;;;;5.60;2.23;;;;;;;;;;5051506;28;20467;-82
2023/07/04 00:16:56;;;;;;;3.03;2.37;;;;;;;;;;5053746;28;20454;-82
2023/07/04 00:19:22;;;;;;;4.53;2.47;;;;;;;;;;5049283;28;20839;-82
2023/07/04 00:21:50;;;;;;;4.40;2.50;;;;;;;;;;5050309;28;20457;-82
2023/07/04 00:24:18;;;;;;;6.67;2.63;;;;;;;;;;5041170;28;20484;-82
2023/07/04 00:26:45;;;;;;;6.43;2.30;;;;;;;;;;5041597;28;20485;-82
2023/07/04 00:29:12;;;;;;;3.63;2.23;;;;;;;;;;5038093;28;20951;-83
2023/07/04 00:31:40;;;;;;;5.90;2.37;;;;;;;;;;5053174;28;20506;-81
2023/07/04 00:34:06;;;;;;;10.73;3.83;;;;;;;;;;5037378;28;20469;-82
2023/07/04 00:36:34;;;;;;;7.40;2.00;;;;;;;;;;5052411;28;20443;-82
2023/07/04 00:39:02;;;;;;;2.30;2.03;;;;;;;;;;5053481;28;20474;-81
2023/07/04 00:41:30;;;;;;;3.10;1.87;;;;;;;;;;5053587;28;20475;-82
2023/07/04 00:44:09;;;;;;;6.60;2.70;;;;;;;;;;5053865;28;20470;-82
2023/07/04 00:46:39;;;;;;;9.47;2.73;;;;;;;;;;5040741;28;20488;-81
2023/07/04 00:49:08;;;;;;;5.10;2.53;;;;;;;;;;5048566;28;20464;-81
2023/07/04 00:51:34;;;;;;;5.63;2.87;;;;;;;;;;5041051;28;20457;-81
2023/07/04 00:54:04;;;;;;;5.50;2.40;;;;;;;;;;5041347;28;20473;-82
2023/07/04 00:56:31;;;;;;;8.00;2.17;;;;;;;;;;5049616;28;20483;-82
2023/07/04 00:59:00;;;;;;;4.20;2.40;;;;;;;;;;5038038;28;20476;-81
2023/07/04 01:01:27;;;;;;;7.00;2.57;;;;;;;;;;5030334;28;21024;-82
2023/07/04 01:03:54;;;;;;;4.53;2.60;;;;;;;;;;5021349;28;20469;-82
2023/07/04 01:06:25;;;;;;;4.13;2.50;;;;;;;;;;5029837;28;20460;-82
2023/07/04 01:08:56;;;;;;;5.97;3.23;;;;;;;;;;5038357;28;20855;-82
2023/07/04 01:11:29;;;;;;;7.37;2.50;;;;;;;;;;5048098;28;20463;-82
2023/07/04 01:13:56;;;;;;;8.40;3.00;;;;;;;;;;5053090;28;20480;-82
2023/07/04 01:16:23;;;;;;;7.47;2.90;;;;;;;;;;5051472;28;20474;-81
2023/07/04 01:18:51;;;;;;;4.90;2.90;;;;;;;;;;5053182;28;20525;-82
2023/07/04 01:21:19;;;;;;;5.23;3.23;;;;;;;;;;5053408;28;20451;-82
2023/07/04 01:23:52;;;;;;;8.10;3.60;;;;;;;;;;5042696;28;20469;-81
2023/07/04 01:26:23;;;;;;;7.10;3.50;;;;;;;;;;5049284;28;20995;-81
2023/07/04 01:28:51;;;;;;;8.80;4.40;;;;;;;;;;5052867;28;20465;-81
2023/07/04 01:31:20;;;;;;;8.17;3.37;;;;;;;;;;5053190;28;20492;-82
2023/07/04 01:33:48;;;;;;;11.10;4.60;;;;;;;;;;5052843;28;20482;-81
2023/07/04 01:36:15;;;;;;;8.30;5.20;;;;;;;;;;5053132;28;21217;-81
2023/07/04 01:38:42;;;;;;;9.93;5.03;;;;;;;;;;5050560;28;20454;-82
2023/07/04 01:41:08;;;;;;;9.70;5.17;;;;;;;;;;5053447;28;20467;-82
2023/07/04 01:43:36;;;;;;;8.47;6.00;;;;;;;;;;5048818;28;20471;-82
2023/07/04 01:46:02;;;;;;;10.33;6.20;;;;;;;;;;5050502;28;20464;-82
2023/07/04 01:48:30;;;;;;;7.37;5.10;;;;;;;;;;5041243;28;20454;-82
2023/07/04 01:50:57;;;;;;;16.87;5.33;;;;;;;;;;5048454;28;20543;-81
2023/07/04 01:53:23;;;;;;;9.90;5.20;;;;;;;;;;5044438;28;20515;-82
2023/07/04 01:55:49;;;;;;;11.37;5.33;;;;;;;;;;5049755;28;20436;-82
2023/07/04 01:58:16;;;;;;;8.17;4.50;;;;;;;;;;5050993;28;21070;-81
2023/07/04 02:00:43;;;;;;;7.90;4.50;;;;;;;;;;5052877;28;20458;-82
2023/07/04 02:03:10;;;;;;;9.33;5.33;;;;;;;;;;5050382;28;20442;-82
2023/07/04 02:05:36;;;;;;;10.63;5.90;;;;;;;;;;5041297;28;20432;-83
2023/07/04 02:08:03;;;;;;;14.10;5.87;;;;;;;;;;5047025;28;20480;-82
2023/07/04 02:10:29;;;;;;;11.77;5.93;;;;;;;;;;5052823;28;20466;-82
2023/07/04 02:12:55;;;;;;;12.23;5.70;;;;;;;;;;5052691;28;20976;-82
2023/07/04 02:15:24;;;;;;;9.97;6.10;;;;;;;;;;5051778;28;20966;-82
2023/07/04 02:17:52;;;;;;;12.00;5.60;;;;;;;;;;5052431;28;20533;-82
2023/07/04 02:20:19;;;;;;;18.10;5.90;;;;;;;;;;5054721;28;20438;-81
2023/07/04 02:22:46;;;;;;;15.97;7.13;;;;;;;;;;5049977;28;20564;-81
2023/07/04 02:25:12;;;;;;;11.00;5.40;;;;;;;;;;5050297;28;20426;-81
2023/07/04 02:27:40;;;;;;;11.47;5.50;;;;;;;;;;5051781;28;21025;-82
2023/07/04 02:30:08;;;;;;;11.03;5.37;;;;;;;;;;5049289;28;20484;-82
2023/07/04 02:32:34;;;;;;;25.93;6.33;;;;;;;;;;5055536;28;20435;-82
2023/07/04 02:35:02;;;;;;;9.43;5.80;;;;;;;;;;5055543;28;20463;-80
2023/07/04 02:37:29;;;;;;;9.83;5.90;;;;;;;;;;5052614;28;20494;-81
2023/07/04 02:39:55;;;;;;;10.60;6.03;;;;;;;;;;5053699;28;20448;-82
2023/07/04 02:42:21;;;;;;;13.37;5.77;;;;;;;;;;5052646;28;20430;-82
2023/07/04 02:44:48;;;;;;;13.13;6.10;;;;;;;;;;5052695;28;20968;-81
2023/07/04 02:47:14;;;;;;;11.50;5.87;;;;;;;;;;5055418;28;20859;-81
2023/07/04 02:49:40;;;;;;;9.57;5.97;;;;;;;;;;5049777;28;20490;-81
2023/07/04 02:52:09;;;;;;;17.33;6.97;;;;;;;;;;5055020;28;20467;-82
2023/07/04 02:54:36;;;;;;;14.80;6.70;;;;;;;;;;5054237;28;20478;-81
2023/07/04 02:57:02;;;;;;;15.43;6.70;;;;;;;;;;5055892;28;20444;-81
2023/07/04 02:59:29;;;;;;;16.33;7.13;;;;;;;;;;5027633;28;20450;-82
2023/07/04 03:01:56;;;;;;;14.40;6.00;;;;;;;;;;5029117;28;20526;-82
2023/07/04 03:04:22;;;;;;;9.13;6.40;;;;;;;;;;5033008;28;20475;-81
2023/07/04 03:06:49;;;;;;;10.67;6.40;;;;;;;;;;5035147;28;20441;-81
2023/07/04 03:09:17;;;;;;;10.43;6.20;;;;;;;;;;5032631;28;20645;-81
2023/07/04 03:11:43;;;;;;;12.70;4.97;;;;;;;;;;5034095;28;20461;-81
2023/07/04 03:14:09;;;;;;;7.20;5.20;;;;;;;;;;5024919;28;20477;-82
2023/07/04 03:16:36;;;;;;;11.20;5.80;;;;;;;;;;5030610;28;20467;-81
2023/07/04 03:19:02;;;;;;;8.10;5.80;;;;;;;;;;5032119;28;20476;-82
2023/07/04 03:21:29;;;;;;;8.27;5.37;;;;;;;;;;5028024;28;20464;-81
2023/07/04 03:23:55;;;;;;;8.87;6.13;;;;;;;;;;5028948;28;20468;-81
2023/07/04 03:26:23;;;;;;;11.07;5.13;;;;;;;;;;5034409;28;20437;-81
2023/07/04 03:28:49;;;;;;;11.20;5.73;;;;;;;;;;5031213;28;21076;-81
2023/07/04 03:31:16;;;;;;;10.13;5.87;;;;;;;;;;5031891;28;20428;-81
2023/07/04 03:33:42;;;;;;;13.40;5.97;;;;;;;;;;5019524;28;20469;-82
2023/07/04 03:36:08;;;;;;;17.90;6.73;;;;;;;;;;5031991;28;20464;-82
2023/07/04 03:38:36;;;;;;;12.23;6.10;;;;;;;;;;5030694;28;20478;-81
2023/07/04 03:41:03;;;;;;;16.70;6.50;;;;;;;;;;5027211;28;20458;-81
2023/07/04 03:43:30;;;;;;;14.60;7.47;;;;;;;;;;5032610;28;20466;-82
2023/07/04 03:45:57;;;;;;;9.70;6.60;;;;;;;;;;5033260;28;20487;-82
2023/07/04 03:48:24;;;;;;;8.43;6.80;;;;;;;;;;5030867;28;20473;-81
2023/07/04 03:50:50;;;;;;;8.17;5.20;;;;;;;;;;5034180;28;20452;-81
2023/07/04 03:53:17;;;;;;;13.03;6.57;;;;;;;;;;5033472;28;20476;-82
2023/07/04 03:55:43;;;;;;;8.87;6.90;;;;;;;;;;5030788;28;20481;-82
2023/07/04 03:58:10;;;;;;;12.03;6.13;;;;;;;;;;5022239;28;20801;-82
2023/07/04 04:00:40;;;;;;;11.23;6.73;;;;;;;;;;5044938;28;20831;-82
2023/07/04 04:03:08;;;;;;;16.73;6.80;;;;;;;;;;5030513;28;20455;-82
2023/07/04 04:05:34;;;;;;;13.30;6.70;;;;;;;;;;5043055;28;20456;-82
2023/07/04 04:08:00;;;;;;;18.37;7.63;;;;;;;;;;5033663;28;20503;-82
2023/07/04 04:10:28;;;;;;;11.20;5.63;;;;;;;;;;5030534;28;20928;-81
2023/07/04 04:12:55;;;;;;;12.97;7.40;;;;;;;;;;5034063;28;20490;-81
2023/07/04 04:15:21;;;;;;;15.67;7.60;;;;;;;;;;5032826;28;21350;-82
2023/07/04 04:17:49;;;;;;;13.03;7.17;;;;;;;;;;5029737;28;20459;-81
2023/07/04 04:20:15;;;;;;;12.03;8.03;;;;;;;;;;5030951;28;20463;-81
2023/07/04 04:22:45;;;;;;;20.60;8.00;;;;;;;;;;5032664;28;20436;-81
2023/07/04 04:25:11;;;;;;;16.30;7.07;;;;;;;;;;5033661;28;20477;-81
2023/07/04 04:27:38;;;;;;;12.20;8.27;;;;;;;;;;5023771;28;20447;-81
2023/07/04 04:30:08;;;;;;;15.57;7.50;;;;;;;;;;5031797;28;20431;-81
2023/07/04 04:32:34;;;;;;;13.70;7.93;;;;;;;;;;5031965;28;20986;-82
2023/07/04 04:35:02;;;;;;;13.57;7.70;;;;;;;;;;5026278;28;20428;-81
2023/07/04 04:37:29;;;;;;;13.93;7.50;;;;;;;;;;5033458;28;20455;-82
2023/07/04 04:39:55;;;;;;;21.60;8.57;;;;;;;;;;5033519;28;20435;-81
2023/07/04 04:42:23;;;;;;;13.93;6.87;;;;;;;;;;5033133;28;20460;-82
2023/07/04 04:44:53;;;;;;;16.60;7.23;;;;;;;;;;5045059;28;20452;-82
2023/07/04 04:47:22;;;;;;;17.97;8.00;;;;;;;;;;5046421;28;21015;-81
2023/07/04 04:49:48;;;;;;;17.43;8.67;;;;;;;;;;5052952;28;20963;-82
2023/07/04 04:52:16;;;;;;;14.50;7.20;;;;;;;;;;5047766;28;20441;-81
2023/07/04 04:54:44;;;;;;;16.73;7.03;;;;;;;;;;5048546;28;20453;-82
2023/07/04 04:57:10;;;;;;;11.27;6.97;;;;;;;;;;5053577;28;20506;-81
2023/07/04 04:59:36;;;;;;;14.30;7.23;;;;;;;;;;5052336;28;21008;-81
2023/07/04 05:02:03;;;;;;;11.00;6.70;;;;;;;;;;5048977;28;20433;-81
2023/07/04 05:04:29;;;;;;;22.07;10.10;;;;;;;;;;5027564;28;20473;-81
2023/07/04 05:06:55;;;;;;;16.50;7.60;;;;;;;;;;5028639;28;20427;-81
2023/07/04 05:09:23;;;;;;;17.00;7.70;;;;;;;;;;5026372;28;20455;-81
2023/07/04 05:11:49;;;;;;;12.40;7.73;;;;;;;;;;5030967;28;20449;-81
2023/07/04 05:14:16;;;;;;;10.70;7.60;;;;;;;;;;5021001;28;20468;-81
2023/07/04 05:16:42;;;;;;;12.00;7.43;;;;;;;;;;5033479;28;20490;-81
2023/07/04 05:19:09;;;;;;;16.90;7.20;;;;;;;;;;5025618;28;21025;-81
2023/07/04 05:21:35;;;;;;;14.20;7.90;;;;;;;;;;5029807;28;20799;-82
2023/07/04 05:24:03;;;;;;;11.70;7.97;;;;;;;;;;5028410;28;20469;-81
2023/07/04 05:26:31;;;;;;;12.80;7.77;;;;;;;;;;5033837;28;20445;-82
2023/07/04 05:28:58;;;;;;;12.60;7.57;;;;;;;;;;5026932;28;20454;-81
2023/07/04 05:31:25;;;;;;;14.23;8.13;;;;;;;;;;5033419;28;20448;-81
2023/07/04 05:33:52;;;;;;;9.53;6.20;;;;;;;;;;5020912;28;20495;-82
2023/07/04 05:36:19;;;;;;;11.90;7.50;;;;;;;;;;5028924;28;20465;-81
2023/07/04 05:38:48;;;;;;;11.40;7.77;;;;;;;;;;5023267;28;20447;-81
2023/07/04 05:41:15;;;;;;;15.30;7.10;;;;;;;;;;5023378;28;20460;-81
2023/07/04 05:43:43;;;;;;;12.80;6.57;;;;;;;;;;5033168;28;20455;-81
2023/07/04 05:46:10;;;;;;;15.93;7.50;;;;;;;;;;5032821;28;20452;-81
2023/07/04 05:48:37;;;;;;;11.97;7.10;;;;;;;;;;5027906;28;20474;-81
2023/07/04 05:51:04;;;;;;;11.97;7.00;;;;;;;;;;5026934;28;20430;-81
2023/07/04 05:53:31;;;;;;;7.50;6.33;;;;;;;;;;5031735;28;20468;-81
2023/07/04 05:56:07;;;;;;;11.67;6.90;;;;;;;;;;5032958;28;20430;-80
2023/07/04 05:58:33;;;;;;;9.77;6.37;;;;;;;;;;5034268;28;20473;-81
2023/07/04 06:01:05;;;;;;;13.67;6.97;;;;;;;;;;5034988;28;20431;-80
2023/07/04 06:03:31;;;;;;;11.63;5.83;;;;;;;;;;5029466;28;20465;-81
2023/07/04 06:05:57;;;;;;;19.00;6.30;;;;;;;;;;5035543;28;20426;-80
2023/07/04 06:08:24;;;;;;;10.93;5.97;;;;;;;;;;5028773;28;20452;-79
2023/07/04 06:10:57;;;;;;;15.97;6.93;;;;;;;;;;5028622;28;20420;-80
2023/07/04 06:13:24;;;;;;;7.50;5.40;;;;;;;;;;5018151;28;20460;-79
2023/07/04 06:15:50;;;;;;;13.17;6.03;;;;;;;;;;5032552;28;20510;-80
2023/07/04 06:18:18;;;;;;;10.60;6.13;;;;;;;;;;5033881;28;20443;-80
2023/07/04 06:20:45;;;;;;;15.10;6.10;;;;;;;;;;5026552;28;20420;-80
2023/07/04 06:23:11;;;;;;;6.07;4.90;;;;;;;;;;5035432;28;20474;-80
2023/07/04 06:25:38;;;;;;;11.33;5.00;;;;;;;;;;5024588;28;20449;-80
2023/07/04 06:28:04;;;;;;;14.37;5.40;;;;;;;;;;5023159;28;20476;-80
2023/07/04 06:30:34;;;;;;;14.00;5.70;;;;;;;;;;5026257;28;21014;-80
2023/07/04 06:33:02;;;;;;;10.57;5.20;;;;;;;;;;5027184;28;20442;-81
2023/07/04 06:35:30;;;;;;;10.70;5.93;;;;;;;;;;5033557;28;20447;-80
2023/07/04 06:37:56;;;;;;;14.57;5.50;;;;;;;;;;5034111;28;20473;-80
2023/07/04 06:40:23;;;;;;;8.13;5.30;;;;;;;;;;5032049;28;20416;-80
2023/07/04 06:42:49;;;;;;;11.40;6.07;;;;;;;;;;5035219;28;20447;-80
2023/07/04 06:45:17;;;;;;;14.60;5.43;;;;;;;;;;5029139;28;20932;-80
2023/07/04 06:47:43;;;;;;;18.73;7.20;;;;;;;;;;5034378;28;20444;-80
2023/07/04 06:50:10;;;;;;;14.07;5.87;;;;;;;;;;5035701;28;20488;-80
2023/07/04 06:52:38;;;;;;;8.40;5.40;;;;;;;;;;5034541;28;20422;-80
2023/07/04 06:55:05;;;;;;;11.20;4.70;;;;;;;;;;5026676;28;20431;-80
2023/07/04 06:57:32;;;;;;;11.83;6.50;;;;;;;;;;5026776;28;20544;-80
2023/07/04 06:59:58;;;;;;;12.10;5.30;;;;;;;;;;5027204;28;20424;-80
2023/07/04 07:02:26;;;;;;;11.67;4.80;;;;;;;;;;5034724;28;20538;-80
2023/07/04 07:04:52;;;;;;;11.03;4.80;;;;;;;;;;5033826;28;20452;-80
2023/07/04 07:07:18;;;;;;;12.47;3.90;;;;;;;;;;5030287;28;20502;-80
2023/07/04 07:09:46;;;;;;;9.53;5.33;;;;;;;;;;5036856;28;20447;-80
2023/07/04 07:12:13;;;;;;;9.23;4.27;;;;;;;;;;5035137;28;20453;-80
2023/07/04 07:14:39;;;;;;;10.33;4.43;;;;;;;;;;5026010;28;20449;-80
2023/07/04 07:17:06;;;;;;;9.70;4.63;;;;;;;;;;5024832;28;20463;-80
2023/07/04 07:19:33;;;;;;;7.70;4.33;;;;;;;;;;5027397;28;20929;-80
2023/07/04 07:22:00;;;;;;;7.63;4.53;;;;;;;;;;5026196;28;20637;-80
2023/07/04 07:24:26;;;;;;;9.10;4.17;;;;;;;;;;5028007;28;20470;-80
2023/07/04 07:26:54;;;;;;;8.87;5.17;;;;;;;;;;5031356;28;21022;-80
2023/07/04 07:29:20;;;;;;;9.13;3.63;;;;;;;;;;5034117;28;20456;-80
2023/07/04 07:31:49;;;;;;;10.70;3.90;;;;;;;;;;5017701;28;20428;-80
2023/07/04 07:34:16;;;;;;;9.30;4.50;;;;;;;;;;5030266;28;20473;-80
2023/07/04 07:36:42;;;;;;;8.87;3.83;;;;;;;;;;5032437;28;20441;-80
2023/07/04 07:39:10;;;;;;;9.90;4.90;;;;;;;;;;5028811;28;20480;-80
2023/07/04 07:41:38;;;;;;;11.17;4.67;;;;;;;;;;5027334;28;20441;-79
2023/07/04 07:44:06;;;;;;;8.23;4.50;;;;;;;;;;5031770;28;20451;-79
2023/07/04 07:46:33;;;;;;;7.27;3.27;;;;;;;;;;5030344;28;20465;-80
2023/07/04 07:48:59;;;;;;;8.10;3.50;;;;;;;;;;5031813;28;20473;-80
2023/07/04 07:51:26;;;;;;;9.10;3.50;;;;;;;;;;5029243;28;20882;-79
2023/07/04 07:53:53;;;;;;;4.70;2.70;;;;;;;;;;5026563;28;20469;-80
2023/07/04 07:56:21;;;;;;;6.70;3.83;;;;;;;;;;5027015;28;20474;-80
2023/07/04 07:58:47;;;;;;;5.60;3.43;;;;;;;;;;5024281;28;20481;-80
2023/07/04 08:01:16;;;;;;;6.17;3.13;;;;;;;;;;5032479;28;20423;-80
2023/07/04 08:03:43;;;;;;;5.33;3.10;;;;;;;;;;5023009;28;20980;-80
2023/07/04 08:06:11;;;;;;;5.40;2.80;;;;;;;;;;5031541;28;20457;-80
2023/07/04 08:08:37;;;;;;;3.20;2.17;;;;;;;;;;5033560;28;20479;-80
2023/07/04 08:11:03;;;;;;;7.97;2.67;;;;;;;;;;5028528;28;20460;-80
2023/07/04 08:13:30;;;;;;;4.83;2.13;;;;;;;;;;5023975;28;20473;-80
2023/07/04 08:15:56;;;;;;;4.63;1.93;;;;;;;;;;5026824;28;20797;-80
2023/07/04 08:18:24;;;;;;;4.77;2.33;;;;;;;;;;5028696;28;20495;-80
2023/07/04 08:20:56;;;;;;;3.03;2.17;;;;;;;;;;5032403;28;20465;-80
2023/07/04 08:23:22;;;;;;;4.30;1.87;;;;;;;;;;5033282;28;20468;-79
2023/07/04 08:25:48;;;;;;;3.93;2.07;;;;;;;;;;5030185;28;20456;-80
2023/07/04 08:28:15;;;;;;;4.03;2.17;;;;;;;;;;5030883;28;20534;-80
2023/07/04 08:30:42;;;;;;;4.83;3.07;;;;;;;;;;5031094;28;20488;-80
2023/07/04 08:33:08;;;;;;;4.13;1.40;;;;;;;;;;5015590;28;20998;-80
2023/07/04 08:35:36;;;;;;;4.90;1.93;;;;;;;;;;5025474;28;20457;-80
2023/07/04 08:38:02;;;;;;;5.00;2.03;;;;;;;;;;5032524;28;20476;-80
2023/07/04 08:40:29;;;;;;;7.47;1.80;;;;;;;;;;5032856;28;20471;-80
2023/07/04 08:42:55;;;;;;;2.40;1.73;;;;;;;;;;5030215;28;20477;-80
2023/07/04 08:45:24;;;;;;;2.77;1.70;;;;;;;;;;5026581;28;20963;-80
2023/07/04 08:47:51;;;;;;;3.90;1.70;;;;;;;;;;5026671;28;20439;-80
2023/07/04 08:50:21;;;;;;;4.63;1.60;;;;;;;;;;5026691;28;20495;-80
2023/07/04 08:52:53;;;;;;;4.53;1.60;;;;;;;;;;5030882;28;20857;-80
2023/07/04 08:55:20;;;;;;;7.63;2.87;;;;;;;;;;5022611;28;20939;-80
2023/07/04 08:57:49;;;;;;;3.50;1.73;;;;;;;;;;5024245;28;20469;-80
2023/07/04 09:00:21;;;;;;;6.67;1.37;;;;;;;;;;5032050;28;20457;-81
2023/07/04 09:03:03;;;;;;;4.33;1.43;;;;;;;;;;5017678;28;20545;-81
2023/07/04 09:05:33;;;;;;;4.87;1.70;;;;;;;;;;5033701;28;20849;-81
2023/07/04 09:08:08;;;;;;;4.47;1.10;;;;;;;;;;5031381;28;20487;-80
2023/07/04 09:10:40;;;;;;;2.20;1.27;;;;;;;;;;5029589;28;20836;-81
2023/07/04 09:13:11;;;;;;;5.70;1.33;;;;;;;;;;5028518;28;20468;-81
2023/07/04 09:15:39;;;;;;;3.80;1.37;;;;;;;;;;5027981;28;20449;-81
2023/07/04 09:18:14;;;;;;;3.90;1.67;;;;;;;;;;5032586;28;20525;-81
2023/07/04 09:20:43;;;;;;;2.63;1.20;;;;;;;;;;5031862;28;20447;-80
2023/07/04 09:23:14;;;;;;;4.03;1.50;;;;;;;;;;5021938;28;20473;-81
2023/07/04 09:25:43;;;;;;;3.13;1.63;;;;;;;;;;5022921;28;20444;-80
2023/07/04 09:28:09;;;;;;;4.97;1.77;;;;;;;;;;5025488;28;20473;-80
2023/07/04 09:30:36;;;;;;;6.57;2.40;;;;;;;;;;5025860;28;20477;-80
2023/07/04 09:33:03;;;;;;;6.33;2.00;;;;;;;;;;5033185;28;20480;-80
2023/07/04 09:35:31;;;;;;;6.43;2.20;;;;;;;;;;5032568;28;20544;-81
2023/07/04 09:37:58;;;;;;;5.17;2.03;;;;;;;;;;5036741;28;20467;-81
2023/07/04 09:40:43;;;;;;;3.40;1.50;;;;;;;;;;5035770;28;20460;-79
2023/07/04 09:43:09;;;;;;;2.87;1.70;;;;;;;;;;5034409;28;20472;-80
2023/07/04 09:45:36;;;;;;;3.40;1.53;;;;;;;;;;5031258;28;20540;-79
2023/07/04 09:48:04;;;;;;;3.67;1.67;;;;;;;;;;5031726;28;20472;-81
2023/07/04 09:50:32;;;;;;;3.10;1.93;;;;;;;;;;5034047;28;20487;-81
2023/07/04 09:53:02;;;;;;;1.77;1.63;;;;;;;;;;5034248;28;20469;-81
2023/07/04 09:55:29;;;;;;;1.87;1.60;;;;;;;;;;5033108;28;20455;-81
2023/07/04 09:58:14;;;;;;;2.27;1.50;;;;;;;;;;5031303;28;20472;-81
2023/07/04 10:00:41;;;;;;;3.77;1.60;;;;;;;;;;5025732;28;20475;-80
2023/07/04 10:03:08;;;;;;;5.57;2.30;;;;;;;;;;5035289;28;20472;-81
2023/07/04 10:05:36;;;;;;;4.50;2.27;;;;;;;;;;5032500;28;20449;-81
2023/07/04 10:08:04;;;;;;;4.53;2.00;;;;;;;;;;5036912;28;20472;-81
2023/07/04 10:10:32;;;;;;;5.03;1.80;;;;;;;;;;5033149;28;20485;-81
2023/07/04 10:12:59;;;;;;;3.37;1.77;;;;;;;;;;5036547;28;20551;-80
2023/07/04 10:15:35;;;;;;;2.97;1.57;;;;;;;;;;5036150;28;20456;-82
2023/07/04 10:18:04;;;;;;;6.80;1.97;;;;;;;;;;5034295;28;20478;-81
2023/07/04 10:20:41;;;;;;;5.73;2.63;;;;;;;;;;5037103;28;20437;-81
2023/07/04 10:23:07;;;;;;;5.23;1.93;;;;;;;;;;5036596;28;20471;-81
2023/07/04 10:25:34;;;;;;;4.10;1.80;;;;;;;;;;5028870;28;20828;-81
2023/07/04 10:28:08;;;;;;;2.33;1.63;;;;;;;;;;5025961;28;20469;-81
2023/07/04 10:30:38;;;;;;;2.30;1.83;;;;;;;;;;5031709;28;20471;-81
2023/07/04 10:33:06;;;;;;;4.33;1.90;;;;;;;;;;5033871;28;20941;-81
2023/07/04 10:35:34;;;;;;;3.70;1.93;;;;;;;;;;5026638;28;20476;-81
2023/07/04 10:38:01;;;;;;;5.97;1.70;;;;;;;;;;5033503;28;20475;-81
2023/07/04 10:40:28;;;;;;;5.63;2.37;;;;;;;;;;5025472;28;20453;-81
2023/07/04 10:42:57;;;;;;;10.97;3.40;;;;;;;;;;5021390;28;20464;-82
2023/07/04 10:45:24;;;;;;;2.53;2.10;;;;;;;;;;5053252;28;20865;-81
2023/07/04 10:47:54;;;;;;;4.03;1.60;;;;;;;;;;5050677;28;20464;-81
2023/07/04 10:50:22;;;;;;;5.27;2.47;;;;;;;;;;5048728;28;20495;-82
2023/07/04 10:52:50;;;;;;;8.80;2.60;;;;;;;;;;5042497;28;20461;-81
2023/07/04 10:55:18;;;;;;;4.87;2.20;;;;;;;;;;5033554;28;20449;-81
2023/07/04 10:57:47;;;;;;;3.20;2.37;;;;;;;;;;5034594;28;20475;-81
2023/07/04 11:00:18;;;;;;;3.97;2.27;;;;;;;;;;5035688;28;20458;-82
2023/07/04 11:02:46;;;;;;;8.83;3.00;;;;;;;;;;5030584;28;21001;-82
2023/07/04 11:05:17;;;;;;;5.37;2.43;;;;;;;;;;5024875;28;20448;-81
2023/07/04 11:07:44;;;;;;;5.93;2.37;;;;;;;;;;5035993;28;20472;-81
2023/07/04 11:10:12;;;;;;;4.90;1.70;;;;;;;;;;5032465;28;20484;-81
2023/07/04 11:12:41;;;;;;;6.30;2.03;;;;;;;;;;5033893;28;20503;-82
2023/07/04 11:15:17;;;;;;;7.20;2.20;;;;;;;;;;5036311;28;20453;-81
2023/07/04 11:17:44;;;;;;;4.80;2.40;;;;;;;;;;5026755;28;20505;-80
2023/07/04 11:20:19;;;;;;;8.27;2.80;;;;;;;;;;5031561;28;20448;-79
2023/07/04 11:22:53;;;;;;;6.47;2.63;;;;;;;;;;5033026;28;20543;-82
2023/07/04 11:25:28;;;;;;;3.33;2.23;;;;;;;;;;5024467;28;20448;-79
2023/07/04 11:28:14;;;;;;;6.80;2.53;;;;;;;;;;5029417;28;21012;-79
2023/07/04 11:30:41;;;;;;;5.07;2.90;;;;;;;;;;5027126;28;20494;-82
2023/07/04 11:33:08;;;;;;;4.97;2.67;;;;;;;;;;5034774;28;20853;-81
2023/07/04 11:35:35;;;;;;;4.03;3.20;;;;;;;;;;5033212;28;20463;-82
2023/07/04 11:38:05;;;;;;;6.33;3.43;;;;;;;;;;5028368;28;20479;-81
2023/07/04 11:40:33;;;;;;;7.80;2.70;;;;;;;;;;5025965;28;20445;-82
2023/07/04 11:43:00;;;;;;;4.80;2.43;;;;;;;;;;5035212;28;21070;-81
2023/07/04 11:45:29;;;;;;;4.63;2.40;;;;;;;;;;5031953;28;20445;-81
2023/07/04 11:47:57;;;;;;;3.03;1.80;;;;;;;;;;5030694;28;20480;-81
2023/07/04 11:50:30;;;;;;;5.93;2.27;;;;;;;;;;5046586;28;21005;-80
2023/07/04 11:52:57;;;;;;;9.30;2.63;;;;;;;;;;5051988;28;20463;-81
2023/07/04 11:55:29;;;;;;;7.07;2.33;;;;;;;;;;5051429;28;20460;-81
2023/07/04 11:58:00;;;;;;;6.43;2.57;;;;;;;;;;5047818;28;20472;-81
2023/07/04 12:00:45;;;;;;;5.23;2.73;;;;;;;;;;5047735;28;20449;-81
2023/07/04 12:03:32;;;;;;;2.97;2.17;;;;;;;;;;5046789;28;20469;-81
2023/07/04 12:06:00;;;;;;;5.57;2.30;;;;;;;;;;5037080;28;20449;-81
2023/07/04 12:08:33;;;;;;;5.37;2.77;;;;;;;;;;5043649;28;20472;-81
2023/07/04 12:11:02;;;;;;;7.77;2.57;;;;;;;;;;5043681;28;20488;-81
2023/07/04 12:13:30;;;;;;;10.07;3.23;;;;;;;;;;5049919;28;20468;-81
2023/07/04 12:15:57;;;;;;;6.93;2.20;;;;;;;;;;5048140;28;20515;-81
2023/07/04 12:18:25;;;;;;;9.67;3.20;;;;;;;;;;5047714;28;20476;-81
2023/07/04 12:20:52;;;;;;;7.23;2.63;;;;;;;;;;5052913;28;20440;-81
2023/07/04 12:23:18;;;;;;;7.90;2.80;;;;;;;;;;5045847;28;20490;-81
2023/07/04 12:25:46;;;;;;;7.20;2.60;;;;;;;;;;5051281;28;20447;-81
2023/07/04 12:28:15;;;;;;;5.90;2.40;;;;;;;;;;5051673;28;20504;-81
2023/07/04 12:30:42;;;;;;;6.53;2.80;;;;;;;;;;5046766;28;20492;-82
2023/07/04 12:33:20;;;;;;;6.30;2.20;;;;;;;;;;5039669;28;20475;-82
2023/07/04 12:35:52;;;;;;;3.70;2.50;;;;;;;;;;5044987;28;20483;-81
2023/07/04 12:38:18;;;;;;;6.87;2.60;;;;;;;;;;5039791;28;20522;-82
2023/07/04 12:40:48;;;;;;;6.70;3.03;;;;;;;;;;5051555;28;20532;-81
2023/07/04 12:43:16;;;;;;;5.03;2.60;;;;;;;;;;5049630;28;20475;-81
2023/07/04 12:45:42;;;;;;;8.27;2.50;;;;;;;;;;5047617;28;20449;-81
2023/07/04 12:48:10;;;;;;;5.53;2.93;;;;;;;;;;5053494;28;20468;-81
2023/07/04 12:50:40;;;;;;;4.93;2.63;;;;;;;;;;5039145;28;20489;-81
2023/07/04 12:53:06;;;;;;;5.83;2.97;;;;;;;;;;5043889;28;20470;-81
2023/07/04 12:55:34;;;;;;;6.60;2.83;;;;;;;;;;5034335;28;20448;-79
2023/07/04 12:58:01;;;;;;;8.23;3.07;;;;;;;;;;5048102;28;20484;-81
2023/07/04 13:00:30;;;;;;;6.43;2.60;;;;;;;;;;5052527;28;20483;-81
2023/07/04 13:02:59;;;;;;;7.93;2.40;;;;;;;;;;5053458;28;20469;-79
2023/07/04 13:05:28;;;;;;;5.53;2.57;;;;;;;;;;5043141;28;20471;-83
2023/07/04 13:07:55;;;;;;;2.63;1.83;;;;;;;;;;5047057;28;20476;-80
2023/07/04 13:10:24;;;;;;;6.67;2.97;;;;;;;;;;5047729;28;20444;-81
2023/07/04 13:12:51;;;;;;;3.83;1.90;;;;;;;;;;5047260;28;20471;-82
2023/07/04 13:15:24;;;;;;;2.80;2.00;;;;;;;;;;5051002;28;20452;-81
2023/07/04 13:17:53;;;;;;;4.60;2.50;;;;;;;;;;5048715;28;20549;-80
2023/07/04 13:20:21;;;;;;;4.37;2.50;;;;;;;;;;5054197;28;20451;-81
2023/07/04 13:22:47;;;;;;;5.60;2.70;;;;;;;;;;5046797;28;20473;-83
2023/07/04 13:25:24;;;;;;;5.77;2.37;;;;;;;;;;5051872;28;20444;-82
2023/07/04 13:28:08;;;;;;;4.13;1.80;;;;;;;;;;5051068;28;20475;-82
2023/07/04 13:30:35;;;;;;;4.50;2.40;;;;;;;;;;5051330;28;20448;-80
2023/07/04 13:33:04;;;;;;;6.13;2.87;;;;;;;;;;5034983;28;20464;-80
2023/07/04 13:35:35;;;;;;;10.73;2.30;;;;;;;;;;5053837;28;20455;-80
2023/07/04 13:38:02;;;;;;;3.00;2.50;;;;;;;;;;5052334;28;20853;-80
2023/07/04 13:40:29;;;;;;;4.30;1.60;;;;;;;;;;5053103;28;20826;-80
2023/07/04 13:43:02;;;;;;;5.50;1.80;;;;;;;;;;5043475;28;20464;-82
2023/07/04 13:45:28;;;;;;;5.10;2.30;;;;;;;;;;5049361;28;20457;-79
2023/07/04 13:47:54;;;;;;;2.93;2.20;;;;;;;;;;5049906;28;20471;-80
2023/07/04 13:50:24;;;;;;;4.93;2.13;;;;;;;;;;5042532;28;20443;-81
2023/07/04 13:52:52;;;;;;;3.27;1.90;;;;;;;;;;5040422;28;20529;-81
2023/07/04 13:55:18;;;;;;;6.37;2.47;;;;;;;;;;5053005;28;20459;-80
2023/07/04 13:57:45;;;;;;;4.13;2.50;;;;;;;;;;5045692;28;20827;-80
2023/07/04 14:00:12;;;;;;;4.17;2.60;;;;;;;;;;5050978;28;20926;-80
2023/07/04 14:02:39;;;;;;;6.70;3.10;;;;;;;;;;5044844;28;20505;-80
2023/07/04 14:05:06;;;;;;;7.63;2.53;;;;;;;;;;5048551;28;20898;-80
2023/07/04 14:07:34;;;;;;;5.93;3.43;;;;;;;;;;5043436;28;20473;-80
2023/07/04 14:10:00;;;;;;;3.40;2.60;;;;;;;;;;5044542;28;20456;-79
2023/07/04 14:12:27;;;;;;;7.10;2.50;;;;;;;;;;5052462;28;20479;-80
2023/07/04 14:14:53;;;;;;;6.83;2.47;;;;;;;;;;5053390;28;20945;-80
2023/07/04 14:17:19;;;;;;;4.47;2.80;;;;;;;;;;5052761;28;20472;-80
2023/07/04 14:19:47;;;;;;;7.60;3.07;;;;;;;;;;5056332;28;20467;-79
2023/07/04 14:22:14;;;;;;;6.63;2.50;;;;;;;;;;5050593;28;20493;-80
2023/07/04 14:24:41;;;;;;;9.13;3.03;;;;;;;;;;5052881;28;20475;-80
2023/07/04 14:27:08;;;;;;;11.00;3.20;;;;;;;;;;5043831;28;20567;-80
2023/07/04 14:29:34;;;;;;;9.33;3.70;;;;;;;;;;5046813;28;20473;-80
2023/07/04 14:32:01;;;;;;;4.03;2.40;;;;;;;;;;5051945;28;20491;-80
2023/07/04 14:34:28;;;;;;;7.80;3.00;;;;;;;;;;5047992;28;20472;-79
2023/07/04 14:36:54;;;;;;;10.60;3.77;;;;;;;;;;5043330;28;20930;-80
2023/07/04 14:39:20;;;;;;;5.73;3.33;;;;;;;;;;5038989;28;20476;-80
2023/07/04 14:41:48;;;;;;;6.90;2.90;;;;;;;;;;5027834;28;20456;-80
2023/07/04 14:44:15;;;;;;;6.23;2.80;;;;;;;;;;5035222;28;20480;-80